Time;durP1;ratioP1;P1;durP2;ratioP2;P2;SDS_P1;SDS_P2;PMS_P1;PMS_P2;Temp;Humidity;BMP_temperature;BMP_pressure;BME280_temperature;BME280_humidity;BME280_pressure;Samples;Min_cycle;Max_cycle;Signal;HPM_P1;HPM_P2
2023/10/03 00:01:06;;;;;;;16.70;7.45;;;12.30;99.90;;;;;;4877024;29;20040;-62
2023/10/03 00:03:33;;;;;;;19.98;7.28;;;12.30;99.90;;;;;;4889774;29;20045;-63
2023/10/03 00:06:00;;;;;;;17.92;6.68;;;12.30;99.90;;;;;;4898638;29;20037;-63
2023/10/03 00:08:27;;;;;;;16.58;6.38;;;12.40;99.90;;;;;;4889378;29;20037;-63
2023/10/03 00:10:54;;;;;;;23.20;7.85;;;12.50;99.90;;;;;;4887509;29;20124;-63
2023/10/03 00:13:21;;;;;;;18.15;6.65;;;12.50;99.90;;;;;;4888989;29;20063;-63
2023/10/03 00:15:48;;;;;;;23.23;7.35;;;12.40;99.90;;;;;;4898596;29;20045;-63
2023/10/03 00:18:16;;;;;;;20.55;6.90;;;12.40;99.90;;;;;;4886601;29;20055;-63
2023/10/03 00:20:43;;;;;;;17.58;7.53;;;12.50;99.90;;;;;;4896819;29;20080;-63
2023/10/03 00:23:10;;;;;;;;;;;12.60;99.90;;;;;;4893115;29;20080;-63
2023/10/03 00:25:38;;;;;;;21.58;7.70;;;12.60;99.90;;;;;;4887927;29;19930;-63
2023/10/03 00:28:10;;;;;;;21.70;7.97;;;12.60;99.90;;;;;;4890076;29;20044;-63
2023/10/03 00:30:40;;;;;;;20.40;7.45;;;12.60;99.90;;;;;;4891169;29;20056;-63
2023/10/03 00:33:12;;;;;;;17.40;7.22;;;12.60;99.90;;;;;;4887421;29;20052;-63
2023/10/03 00:35:40;;;;;;;19.15;7.05;;;12.60;99.90;;;;;;4877972;29;20062;-63
2023/10/03 00:38:13;;;;;;;20.40;7.60;;;12.70;99.90;;;;;;4870622;29;20108;-63
2023/10/03 00:40:41;;;;;;;18.55;6.80;;;12.70;99.90;;;;;;4871295;29;20052;-63
2023/10/03 00:43:08;;;;;;;20.35;6.63;;;12.60;99.90;;;;;;4870921;29;20140;-63
2023/10/03 00:45:35;;;;;;;18.45;7.30;;;12.70;99.90;;;;;;4896462;29;20057;-63
2023/10/03 00:48:12;;;;;;;;;;;12.60;99.90;;;;;;4873272;29;20071;-63
2023/10/03 00:50:42;;;;;;;20.92;6.93;;;12.60;99.90;;;;;;4871336;29;19927;-63
2023/10/03 00:53:13;;;;;;;20.02;7.13;;;12.60;99.90;;;;;;4891468;29;20087;-63
2023/10/03 00:55:43;;;;;;;18.27;6.72;;;12.60;99.90;;;;;;4888002;29;20045;-63
2023/10/03 01:00:49;;;;;;;22.92;7.35;;;12.50;99.90;;;;;;4887379;29;20566;-63
2023/10/03 01:03:32;;;;;;;20.58;7.05;;;12.50;99.90;;;;;;4889326;29;20091;-63
2023/10/03 01:06:07;;;;;;;27.13;7.10;;;12.50;99.90;;;;;;4893509;29;20495;-63
2023/10/03 01:08:36;;;;;;;23.48;7.03;;;12.50;99.90;;;;;;4891281;29;20051;-63
2023/10/03 01:11:28;;;;;;;21.85;7.25;;;12.50;99.90;;;;;;4875624;29;20064;-65
2023/10/03 01:13:59;;;;;;;19.27;7.47;;;12.50;99.90;;;;;;4872689;29;20108;-63
2023/10/03 01:16:33;;;;;;;24.08;8.15;;;12.50;99.90;;;;;;4872727;29;20101;-63
2023/10/03 01:19:18;;;;;;;16.40;6.30;;;12.50;99.90;;;;;;4868763;29;20048;-63
2023/10/03 01:21:47;;;;;;;21.88;7.28;;;12.40;99.90;;;;;;4872476;29;20499;-63
2023/10/03 01:24:24;;;;;;;20.00;7.07;;;12.40;99.90;;;;;;4889911;29;20037;-63
2023/10/03 01:26:54;;;;;;;20.50;6.97;;;12.40;99.90;;;;;;4881746;29;20052;-63
2023/10/03 01:29:22;;;;;;;21.70;6.45;;;12.40;99.90;;;;;;4879636;29;20574;-63
2023/10/03 01:31:52;;;;;;;20.23;6.95;;;12.50;99.90;;;;;;4896979;29;20189;-63
2023/10/03 01:34:20;;;;;;;21.60;6.95;;;12.60;99.90;;;;;;4897033;29;20377;-63
2023/10/03 01:36:48;;;;;;;18.52;6.55;;;12.50;99.90;;;;;;4884398;29;20052;-63
2023/10/03 01:39:15;;;;;;;23.33;7.15;;;12.50;99.90;;;;;;4896722;29;20089;-63
2023/10/03 01:41:42;;;;;;;19.45;6.75;;;12.30;99.90;;;;;;4895726;29;20442;-63
2023/10/03 01:44:10;;;;;;;17.42;6.22;;;12.40;99.90;;;;;;4891540;29;20045;-63
2023/10/03 01:46:38;;;;;;;22.23;6.95;;;12.30;99.90;;;;;;4869825;29;20049;-63
2023/10/03 01:49:06;;;;;;;17.88;6.88;;;12.20;99.90;;;;;;4888894;29;20055;-63
2023/10/03 01:51:33;;;;;;;17.05;6.85;;;12.20;99.90;;;;;;4875682;29;20053;-63
2023/10/03 01:54:00;;;;;;;20.10;7.20;;;12.20;99.90;;;;;;4885937;29;20055;-63
2023/10/03 01:56:29;;;;;;;14.65;6.50;;;12.10;99.90;;;;;;4868288;29;20426;-63
2023/10/03 01:58:56;;;;;;;23.15;6.95;;;12.20;99.90;;;;;;4878525;29;20052;-63
2023/10/03 02:01:23;;;;;;;20.00;6.63;;;12.20;99.90;;;;;;4876613;29;20099;-63
2023/10/03 02:03:50;;;;;;;21.52;6.53;;;12.20;99.90;;;;;;4894803;29;20064;-63
2023/10/03 02:06:19;;;;;;;18.85;7.45;;;12.10;99.90;;;;;;4871166;29;20044;-63
2023/10/03 02:08:47;;;;;;;19.55;7.03;;;12.10;99.90;;;;;;4869495;29;20581;-63
2023/10/03 02:11:14;;;;;;;18.50;5.43;;;12.00;99.90;;;;;;4869528;29;20055;-63
2023/10/03 02:13:42;;;;;;;;;;;12.00;99.90;;;;;;4876759;29;20068;-63
2023/10/03 02:16:11;;;;;;;21.45;6.93;;;11.90;99.90;;;;;;4868505;29;19959;-63
2023/10/03 02:18:40;;;;;;;19.58;6.88;;;11.90;99.90;;;;;;4871327;29;20071;-63
2023/10/03 02:21:09;;;;;;;20.23;6.60;;;11.90;99.90;;;;;;4879601;29;20054;-62
2023/10/03 02:23:35;;;;;;;20.10;7.03;;;12.00;99.90;;;;;;4887453;29;20037;-63
2023/10/03 02:26:10;;;;;;;21.02;7.32;;;12.00;99.90;;;;;;4868625;29;20049;-63
2023/10/03 02:28:38;;;;;;;19.73;7.15;;;12.00;99.90;;;;;;4892651;29;20045;-63
2023/10/03 02:31:08;;;;;;;21.98;7.03;;;12.00;99.90;;;;;;4892620;29;20207;-63
2023/10/03 02:33:38;;;;;;;19.77;6.53;;;12.10;99.90;;;;;;4887987;29;20127;-63
2023/10/03 02:36:07;;;;;;;21.98;7.80;;;12.00;99.90;;;;;;4879328;29;20513;-63
2023/10/03 02:38:36;;;;;;;20.88;7.68;;;12.00;99.90;;;;;;4887737;29;20556;-63
2023/10/03 02:41:07;;;;;;;17.65;6.43;;;12.00;99.90;;;;;;4871754;29;20405;-63
2023/10/03 02:43:39;;;;;;;15.57;5.93;;;12.10;99.90;;;;;;4879107;29;20516;-63
2023/10/03 02:46:11;;;;;;;17.42;5.90;;;12.00;99.90;;;;;;4888336;29;20091;-63
2023/10/03 02:48:43;;;;;;;14.57;5.93;;;11.90;99.90;;;;;;4878823;29;20057;-63
2023/10/03 02:51:12;;;;;;;22.10;6.38;;;11.80;99.90;;;;;;4871319;29;20044;-63
2023/10/03 02:53:39;;;;;;;15.60;6.13;;;11.70;99.90;;;;;;4871292;29;20504;-63
2023/10/03 02:56:07;;;;;;;20.88;6.80;;;11.60;99.90;;;;;;4868467;29;20049;-63
2023/10/03 02:58:35;;;;;;;15.15;6.13;;;11.60;99.90;;;;;;4885395;29;20076;-63
2023/10/03 03:01:03;;;;;;;20.50;6.75;;;11.60;99.90;;;;;;4887268;29;20589;-63
2023/10/03 03:03:32;;;;;;;13.93;6.10;;;11.60;99.90;;;;;;4871627;29;20139;-63
2023/10/03 03:06:09;;;;;;;22.00;7.10;;;11.60;99.90;;;;;;4868431;29;20502;-63
2023/10/03 03:08:39;;;;;;;19.85;6.72;;;11.70;99.90;;;;;;4878536;29;20049;-63
2023/10/03 03:11:08;;;;;;;20.70;7.15;;;11.70;99.90;;;;;;4877161;29;20052;-63
2023/10/03 03:13:36;;;;;;;17.42;6.32;;;11.70;99.90;;;;;;4885214;29;20438;-63
2023/10/03 03:16:04;;;;;;;20.45;7.82;;;11.60;99.90;;;;;;4890995;29;20075;-63
2023/10/03 03:18:40;;;;;;;20.05;7.60;;;11.70;99.90;;;;;;4895693;29;20056;-62
2023/10/03 03:21:15;;;;;;;19.65;7.00;;;11.70;99.90;;;;;;4889938;29;20112;-63
2023/10/03 03:23:57;;;;;;;16.73;6.18;;;11.70;99.90;;;;;;4891011;29;20051;-63
2023/10/03 03:26:36;;;;;;;18.58;6.45;;;11.70;99.90;;;;;;4877118;29;20064;-63
2023/10/03 03:29:19;;;;;;;19.45;6.40;;;11.70;99.90;;;;;;4888214;29;20093;-63
2023/10/03 03:31:47;;;;;;;18.60;6.85;;;11.80;99.90;;;;;;4895902;29;20123;-63
2023/10/03 03:34:14;;;;;;;17.45;6.95;;;11.70;99.90;;;;;;4882954;29;20048;-63
2023/10/03 03:36:41;;;;;;;18.73;6.85;;;11.70;99.90;;;;;;4903560;29;20123;-63
2023/10/03 03:39:15;;;;;;;22.25;7.18;;;11.80;99.90;;;;;;4888169;29;20406;-62
2023/10/03 03:41:43;;;;;;;24.55;7.47;;;11.80;99.90;;;;;;4902547;29;20042;-63
2023/10/03 03:44:13;;;;;;;20.70;6.78;;;11.80;99.90;;;;;;4899352;29;20049;-63
2023/10/03 03:46:43;;;;;;;18.63;6.35;;;11.80;99.90;;;;;;4896727;29;20045;-62
2023/10/03 03:49:12;;;;;;;18.45;6.25;;;12.00;99.90;;;;;;4900308;29;20131;-62
2023/10/03 03:51:40;;;;;;;20.25;7.50;;;12.10;99.90;;;;;;4903578;29;20462;-62
2023/10/03 03:54:11;;;;;;;25.00;8.07;;;12.20;99.90;;;;;;4889590;29;20049;-62
2023/10/03 03:56:40;;;;;;;20.35;7.18;;;12.30;99.90;;;;;;4907854;29;20044;-62
2023/10/03 03:59:08;;;;;;;21.52;6.35;;;12.30;99.90;;;;;;4894715;29;20045;-63
2023/10/03 04:01:35;;;;;;;20.13;7.18;;;12.30;99.90;;;;;;4890107;29;20049;-62
2023/10/03 04:04:03;;;;;;;;;;;12.20;99.90;;;;;;4889607;29;20041;-63
2023/10/03 04:06:32;;;;;;;20.25;7.25;;;12.10;99.90;;;;;;4903487;29;19930;-63
2023/10/03 04:08:59;;;;;;;24.35;7.00;;;12.10;99.90;;;;;;4896012;29;20045;-63
2023/10/03 04:11:35;;;;;;;19.92;7.28;;;12.00;99.90;;;;;;4893924;29;20037;-63
2023/10/03 04:14:05;;;;;;;20.10;7.70;;;12.00;99.90;;;;;;4895146;29;20051;-63
2023/10/03 04:16:38;;;;;;;21.20;7.45;;;11.90;99.90;;;;;;4881441;29;20041;-63
2023/10/03 04:19:06;;;;;;;21.73;7.47;;;11.80;99.90;;;;;;4887553;29;20105;-63
2023/10/03 04:21:33;;;;;;;25.27;7.55;;;11.70;99.90;;;;;;4890144;29;20059;-63
2023/10/03 04:24:00;;;;;;;15.85;6.28;;;11.60;99.90;;;;;;4889459;29;20523;-63
2023/10/03 04:26:28;;;;;;;22.33;7.03;;;11.60;99.90;;;;;;4878805;29;20049;-63
2023/10/03 04:28:55;;;;;;;19.00;5.80;;;11.50;99.90;;;;;;4894701;29;20056;-62
2023/10/03 04:31:21;;;;;;;18.92;6.97;;;11.50;99.90;;;;;;4888547;29;20064;-63
2023/10/03 04:33:49;;;;;;;21.98;6.53;;;11.50;99.90;;;;;;4890284;29;20037;-63
2023/10/03 04:36:17;;;;;;;18.42;6.85;;;11.50;99.90;;;;;;4897021;29;20048;-63
2023/10/03 04:38:44;;;;;;;19.90;6.18;;;11.50;99.90;;;;;;4894995;29;20049;-63
2023/10/03 04:41:11;;;;;;;21.38;7.40;;;11.50;99.90;;;;;;4886654;29;20105;-63
2023/10/03 04:43:39;;;;;;;22.98;7.00;;;11.50;99.90;;;;;;4900455;29;20123;-63
2023/10/03 04:46:07;;;;;;;22.17;6.60;;;11.50;99.90;;;;;;4894348;29;20049;-63
2023/10/03 04:48:36;;;;;;;21.45;7.18;;;11.50;99.90;;;;;;4890757;29;20097;-63
2023/10/03 04:51:03;;;;;;;21.73;7.20;;;11.50;99.90;;;;;;4871649;29;20052;-63
2023/10/03 04:53:30;;;;;;;20.77;6.72;;;11.50;99.90;;;;;;4897915;29;20133;-63
2023/10/03 04:55:57;;;;;;;18.83;7.18;;;11.50;99.90;;;;;;4893742;29;20043;-63
2023/10/03 04:58:24;;;;;;;19.92;7.15;;;11.40;99.90;;;;;;4889393;29;20418;-63
2023/10/03 05:00:50;;;;;;;18.88;6.70;;;11.50;99.90;;;;;;4876196;29;20041;-63
2023/10/03 05:03:19;;;;;;;20.45;6.38;;;11.40;99.90;;;;;;4866742;29;20044;-63
2023/10/03 05:05:48;;;;;;;25.10;7.35;;;11.40;99.90;;;;;;4872768;29;20041;-63
2023/10/03 05:08:18;;;;;;;18.38;5.90;;;11.40;99.90;;;;;;4876812;29;20045;-63
2023/10/03 05:10:45;;;;;;;20.60;6.85;;;11.40;99.90;;;;;;4893032;29;20072;-63
2023/10/03 05:13:12;;;;;;;19.38;6.25;;;11.30;99.90;;;;;;4892341;29;20036;-63
2023/10/03 05:15:38;;;;;;;20.42;7.35;;;11.30;99.90;;;;;;4896660;29;20063;-63
2023/10/03 05:18:06;;;;;;;22.60;7.45;;;11.30;99.90;;;;;;4895104;29;20508;-63
2023/10/03 05:20:42;;;;;;;20.25;7.30;;;11.20;99.90;;;;;;4883503;29;20422;-63
2023/10/03 05:23:09;;;;;;;19.33;6.55;;;11.20;99.90;;;;;;4895335;29;20052;-63
2023/10/03 05:25:42;;;;;;;20.70;6.93;;;11.10;99.90;;;;;;4891549;29;20075;-63
2023/10/03 05:28:12;;;;;;;19.05;6.45;;;11.10;99.90;;;;;;4894654;29;20045;-63
2023/10/03 05:30:40;;;;;;;19.58;6.50;;;11.00;99.90;;;;;;4887393;29;20506;-63
2023/10/03 05:33:07;;;;;;;19.77;6.68;;;11.00;99.90;;;;;;4894238;29;20041;-63
2023/10/03 05:35:35;;;;;;;21.63;8.00;;;10.90;99.90;;;;;;4890804;29;20060;-63
2023/10/03 05:38:07;;;;;;;23.58;7.93;;;11.00;99.90;;;;;;4892676;29;20124;-63
2023/10/03 05:40:34;;;;;;;22.40;7.97;;;11.00;99.90;;;;;;4890237;29;20152;-63
2023/10/03 05:43:05;;;;;;;21.95;7.55;;;11.10;99.90;;;;;;4895794;29;20059;-63
2023/10/03 05:45:36;;;;;;;20.85;7.22;;;11.20;99.90;;;;;;4894208;29;20045;-62
2023/10/03 05:48:04;;;;;;;14.90;5.18;;;11.30;99.90;;;;;;4894490;29;20048;-62
2023/10/03 05:50:33;;;;;;;15.15;6.70;;;11.20;99.90;;;;;;4884943;29;20444;-63
2023/10/03 05:53:01;;;;;;;21.90;7.30;;;11.10;99.90;;;;;;4886784;29;20059;-63
2023/10/03 05:55:28;;;;;;;23.00;7.35;;;10.90;99.90;;;;;;4889748;29;20071;-63
2023/10/03 05:57:55;;;;;;;20.20;7.20;;;10.90;99.90;;;;;;4895387;29;20040;-63
2023/10/03 06:00:23;;;;;;;23.83;7.20;;;10.90;99.90;;;;;;4896439;29;20044;-63
2023/10/03 06:02:50;;;;;;;20.40;6.88;;;10.90;99.90;;;;;;4895462;29;20052;-63
2023/10/03 06:05:18;;;;;;;19.70;7.40;;;10.90;99.90;;;;;;4888674;29;20059;-63
2023/10/03 06:07:45;;;;;;;25.67;7.50;;;10.90;99.90;;;;;;4888231;29;20056;-63
2023/10/03 06:10:15;;;;;;;32.28;8.35;;;11.00;99.90;;;;;;4887463;29;20558;-63
2023/10/03 06:12:42;;;;;;;24.88;8.68;;;11.10;99.90;;;;;;4887742;29;20040;-63
2023/10/03 06:15:12;;;;;;;29.02;8.20;;;11.20;99.90;;;;;;4886505;29;20053;-63
2023/10/03 06:17:40;;;;;;;33.42;8.98;;;11.20;99.90;;;;;;4884951;29;20509;-63
2023/10/03 06:20:10;;;;;;;29.05;8.55;;;11.20;99.90;;;;;;4892374;29;20415;-63
2023/10/03 06:22:39;;;;;;;33.08;9.93;;;11.20;99.90;;;;;;4890723;29;20047;-63
2023/10/03 06:25:07;;;;;;;35.95;8.75;;;11.30;99.90;;;;;;4885772;29;20045;-63
2023/10/03 06:27:34;;;;;;;30.25;9.02;;;11.40;99.90;;;;;;4884636;29;20077;-63
2023/10/03 06:30:02;;;;;;;28.20;10.10;;;11.40;99.90;;;;;;4891313;29;20076;-63
2023/10/03 06:32:29;;;;;;;27.02;8.18;;;11.50;99.90;;;;;;4890718;29;20120;-63
2023/10/03 06:34:56;;;;;;;27.35;8.40;;;11.60;99.90;;;;;;4891499;29;20127;-63
2023/10/03 06:37:24;;;;;;;21.55;6.90;;;11.60;99.90;;;;;;4883534;29;20135;-63
2023/10/03 06:39:50;;;;;;;25.40;7.45;;;11.70;99.90;;;;;;4891361;29;20048;-63
2023/10/03 06:42:18;;;;;;;29.05;8.13;;;11.90;99.90;;;;;;4887691;29;20105;-63
2023/10/03 06:44:45;;;;;;;25.50;8.40;;;12.10;99.90;;;;;;4894376;29;20491;-63
2023/10/03 06:47:12;;;;;;;21.35;6.60;;;12.20;99.90;;;;;;4893884;29;20052;-63
2023/10/03 06:49:39;;;;;;;18.77;7.03;;;12.40;99.90;;;;;;4888737;29;20320;-63
2023/10/03 06:52:06;;;;;;;24.92;7.65;;;12.50;99.90;;;;;;4887722;29;20045;-62
2023/10/03 06:54:33;;;;;;;22.30;7.20;;;12.70;99.90;;;;;;4894740;29;20064;-63
2023/10/03 06:57:00;;;;;;;24.33;8.23;;;12.80;99.90;;;;;;4888021;29;20060;-63
2023/10/03 06:59:27;;;;;;;21.58;7.80;;;12.90;99.90;;;;;;4885351;29;20052;-63
2023/10/03 07:01:54;;;;;;;24.98;6.95;;;13.10;99.90;;;;;;4887868;29;20051;-63
2023/10/03 07:04:20;;;;;;;22.75;7.65;;;13.10;99.90;;;;;;4873876;29;20048;-63
2023/10/03 07:06:50;;;;;;;21.55;7.35;;;13.20;99.90;;;;;;4891304;29;20405;-63
2023/10/03 07:09:17;;;;;;;26.42;7.68;;;13.30;99.90;;;;;;4881982;29;20040;-63
2023/10/03 07:11:47;;;;;;;21.85;7.90;;;13.50;99.90;;;;;;4890871;29;20517;-63
2023/10/03 07:14:15;;;;;;;22.60;8.15;;;13.70;99.90;;;;;;4891562;29;20048;-63
2023/10/03 07:16:44;;;;;;;20.33;7.60;;;13.90;99.90;;;;;;4891229;29;20044;-63
2023/10/03 07:19:13;;;;;;;24.02;7.63;;;14.00;99.90;;;;;;4892531;29;20075;-63
2023/10/03 07:21:41;;;;;;;20.42;7.25;;;14.10;99.90;;;;;;4887790;29;20123;-62
2023/10/03 07:24:08;;;;;;;20.30;7.45;;;14.20;99.90;;;;;;4897233;29;20041;-63
2023/10/03 07:26:35;;;;;;;;;;;14.20;99.90;;;;;;4893778;29;20041;-63
2023/10/03 07:29:02;;;;;;;20.27;6.85;;;14.30;99.90;;;;;;4887643;29;19975;-63
2023/10/03 07:31:32;;;;;;;;;;;14.30;99.90;;;;;;4891437;29;20541;-63
2023/10/03 07:33:59;;;;;;;28.00;7.47;;;14.50;99.90;;;;;;4890607;29;19945;-63
2023/10/03 07:36:27;;;;;;;;;;;14.50;99.90;;;;;;4891383;29;20041;-63
2023/10/03 07:38:54;;;;;;;26.40;8.73;;;14.60;99.90;;;;;;4890317;29;20010;-63
2023/10/03 07:41:21;;;;;;;19.17;7.70;;;14.80;99.90;;;;;;4898602;29;20052;-63
2023/10/03 07:43:48;;;;;;;26.65;8.02;;;14.90;99.90;;;;;;4890676;29;20045;-63
2023/10/03 07:46:25;;;;;;;23.25;7.97;;;15.00;99.90;;;;;;4897792;29;20044;-63
2023/10/03 07:48:53;;;;;;;24.88;8.35;;;15.00;99.90;;;;;;4892001;29;20048;-63
2023/10/03 07:51:26;;;;;;;21.85;7.50;;;15.10;99.90;;;;;;4887362;29;20136;-63
2023/10/03 07:53:55;;;;;;;20.60;7.53;;;15.20;99.90;;;;;;4886112;29;20061;-63
2023/10/03 07:56:25;;;;;;;24.08;8.25;;;15.30;99.90;;;;;;4887066;29;20132;-63
2023/10/03 07:58:55;;;;;;;22.88;8.07;;;15.30;99.90;;;;;;4892389;29;20109;-63
2023/10/03 08:01:26;;;;;;;23.98;8.20;;;15.40;99.90;;;;;;4888305;29;20045;-63
2023/10/03 08:03:55;;;;;;;18.60;7.93;;;15.50;99.90;;;;;;4898134;29;20044;-63
2023/10/03 08:06:23;;;;;;;19.70;7.43;;;15.50;99.90;;;;;;4894865;29;20052;-63
2023/10/03 08:08:55;;;;;;;20.02;7.68;;;15.60;99.90;;;;;;4892033;29;20478;-63
2023/10/03 08:11:28;;;;;;;22.10;7.72;;;15.80;99.90;;;;;;4888088;29;20100;-63
2023/10/03 08:14:00;;;;;;;25.15;8.10;;;15.90;99.90;;;;;;4893595;29;20490;-63
2023/10/03 08:16:27;;;;;;;24.13;7.90;;;15.90;99.90;;;;;;4887531;29;20056;-63
2023/10/03 08:18:58;;;;;;;21.00;7.95;;;16.10;99.90;;;;;;4886199;29;20059;-63
2023/10/03 08:21:27;;;;;;;19.33;7.25;;;16.10;99.90;;;;;;4889078;29;20200;-64
2023/10/03 08:23:58;;;;;;;19.27;7.55;;;16.30;99.90;;;;;;4891243;29;20049;-64
2023/10/03 08:26:26;;;;;;;21.63;7.13;;;16.40;99.90;;;;;;4896577;29;20053;-64
2023/10/03 08:28:59;;;;;;;26.17;7.75;;;16.60;99.90;;;;;;4889495;29;20037;-63
2023/10/03 08:31:27;;;;;;;23.75;8.32;;;16.70;99.90;;;;;;4887609;29;20052;-63
2023/10/03 08:33:55;;;;;;;;;;;16.70;99.90;;;;;;4891640;29;20072;-64
2023/10/03 08:36:31;;;;;;;19.58;7.05;;;16.60;99.90;;;;;;4895832;29;20328;-64
2023/10/03 08:39:12;;;;;;;19.60;7.10;;;16.70;99.90;;;;;;4884078;29;20036;-63
2023/10/03 08:42:15;;;;;;;21.75;7.07;;;16.70;99.90;;;;;;4892362;29;20414;-63
2023/10/03 08:44:52;;;;;;;21.77;7.60;;;16.80;99.90;;;;;;4882809;29;20048;-63
2023/10/03 08:47:29;;;;;;;22.80;7.22;;;16.90;99.90;;;;;;4897240;29;20036;-63
2023/10/03 08:50:11;;;;;;;21.08;8.30;;;16.90;99.90;;;;;;4886274;29;20482;-63
2023/10/03 08:52:47;;;;;;;20.35;8.60;;;17.00;99.90;;;;;;4882310;29;20442;-63
2023/10/03 08:55:19;;;;;;;24.50;8.48;;;17.20;99.90;;;;;;4889121;29;20072;-63
2023/10/03 08:57:48;;;;;;;22.77;8.35;;;17.40;99.90;;;;;;4890732;29;20175;-63
2023/10/03 09:00:17;;;;;;;26.08;8.90;;;17.50;99.90;;;;;;4896588;29;20068;-63
2023/10/03 09:02:46;;;;;;;20.85;7.97;;;17.70;99.90;;;;;;4888930;29;20053;-64
2023/10/03 09:05:20;;;;;;;22.30;8.45;;;17.90;99.90;;;;;;4891199;29;20040;-63
2023/10/03 09:07:48;;;;;;;23.30;8.80;;;18.10;99.90;;;;;;4906417;29;20123;-64
2023/10/03 09:10:25;;;;;;;28.77;9.75;;;18.20;99.90;;;;;;4883752;29;20509;-64
2023/10/03 09:13:03;;;;;;;26.05;8.90;;;18.30;99.90;;;;;;4891316;29;20040;-63
2023/10/03 09:15:42;;;;;;;26.10;9.90;;;18.40;99.90;;;;;;4894578;29;20080;-63
2023/10/03 09:18:21;;;;;;;22.35;9.25;;;18.60;99.90;;;;;;4892707;29;20052;-64
2023/10/03 09:20:49;;;;;;;24.08;9.10;;;18.70;99.90;;;;;;4891744;29;20048;-64
2023/10/03 09:23:17;;;;;;;28.30;9.68;;;18.80;99.90;;;;;;4895813;29;20052;-64
2023/10/03 09:25:55;;;;;;;24.15;8.88;;;18.90;99.90;;;;;;4876619;29;20060;-64
2023/10/03 09:28:35;;;;;;;21.00;8.40;;;18.90;99.90;;;;;;4893748;29;20053;-63
2023/10/03 09:31:08;;;;;;;25.95;9.30;;;19.00;99.90;;;;;;4888165;29;20407;-64
2023/10/03 09:33:38;;;;;;;22.05;8.30;;;19.10;99.90;;;;;;4888734;29;20040;-62
2023/10/03 09:36:06;;;;;;;24.27;9.57;;;19.30;99.90;;;;;;4895134;29;20041;-64
2023/10/03 09:38:46;;;;;;;24.73;8.98;;;19.40;99.90;;;;;;4888664;29;20045;-64
2023/10/03 09:41:21;;;;;;;24.35;9.70;;;19.50;99.90;;;;;;4888886;29;20041;-64
2023/10/03 09:43:55;;;;;;;22.65;8.80;;;19.60;99.90;;;;;;4892165;29;20128;-64
2023/10/03 09:46:23;;;;;;;24.40;8.70;;;19.60;99.90;;;;;;4885765;29;20055;-64
2023/10/03 09:48:55;;;;;;;25.70;9.32;;;19.60;99.90;;;;;;4889607;29;20068;-64
2023/10/03 09:51:36;;;;;;;25.10;9.25;;;19.70;99.90;;;;;;4887257;29;20047;-63
2023/10/03 09:54:08;;;;;;;25.80;10.18;;;19.70;99.90;;;;;;4896312;29;20119;-64
2023/10/03 09:56:40;;;;;;;23.95;9.15;;;19.70;99.90;;;;;;4885225;29;20163;-64
2023/10/03 09:59:08;;;;;;;26.85;10.32;;;19.80;99.90;;;;;;4885073;29;20052;-63
2023/10/03 10:01:39;;;;;;;24.35;9.82;;;19.90;99.90;;;;;;4894676;29;20080;-64
2023/10/03 10:04:08;;;;;;;23.02;8.75;;;20.00;99.90;;;;;;4890149;29;20482;-64
2023/10/03 10:06:49;;;;;;;26.95;10.02;;;20.10;99.90;;;;;;4886878;29;20120;-64
2023/10/03 10:09:27;;;;;;;25.80;10.40;;;20.10;99.90;;;;;;4886793;29;20057;-64
2023/10/03 10:12:19;;;;;;;37.55;11.38;;;20.20;99.90;;;;;;4895145;29;20047;-63
2023/10/03 10:15:00;;;;;;;29.58;10.10;;;20.20;99.90;;;;;;4879908;29;20044;-63
2023/10/03 10:17:45;;;;;;;23.90;9.65;;;20.30;99.90;;;;;;4886876;29;20040;-64
2023/10/03 10:20:17;;;;;;;23.60;9.77;;;20.30;99.90;;;;;;4886536;29;20056;-64
2023/10/03 10:23:12;;;;;;;25.17;10.50;;;20.30;99.90;;;;;;4888355;29;20047;-64
2023/10/03 10:25:51;;;;;;;22.27;9.57;;;20.40;99.90;;;;;;4888088;29;21223;-63
2023/10/03 10:28:22;;;;;;;28.73;10.95;;;20.40;99.90;;;;;;4888271;29;20049;-63
2023/10/03 10:31:15;;;;;;;22.75;9.45;;;20.40;99.90;;;;;;4895835;29;20036;-64
2023/10/03 10:33:43;;;;;;;26.60;10.15;;;20.50;99.90;;;;;;4892827;29;20116;-64
2023/10/03 10:36:10;;;;;;;;;;;20.50;99.90;;;;;;4895175;29;20136;-63
2023/10/03 10:38:38;;;;;;;26.80;10.57;;;20.70;99.90;;;;;;4893279;29;19931;-63
2023/10/03 10:41:11;;;;;;;28.08;11.20;;;20.70;99.90;;;;;;4899722;29;20052;-64
2023/10/03 10:44:16;;;;;;;26.63;11.13;;;20.90;99.90;;;;;;4889376;29;20505;-64
2023/10/03 10:46:49;;;;;;;30.83;10.98;;;20.90;99.90;;;;;;4893311;29;20115;-63
2023/10/03 10:49:31;;;;;;;25.08;10.68;;;20.80;99.90;;;;;;4899310;29;20052;-63
2023/10/03 10:52:00;;;;;;;24.38;10.77;;;20.80;99.90;;;;;;4884455;29;20047;-64
2023/10/03 10:54:28;;;;;;;29.20;11.10;;;21.00;99.90;;;;;;4890421;29;20553;-63
2023/10/03 10:57:00;;;;;;;25.30;10.95;;;21.20;99.90;;;;;;4894907;29;20509;-63
2023/10/03 10:59:28;;;;;;;22.08;10.27;;;21.30;99.90;;;;;;4898150;29;20048;-63
2023/10/03 11:01:56;;;;;;;27.17;11.68;;;21.50;99.90;;;;;;4893228;29;20044;-63
2023/10/03 11:04:28;;;;;;;25.15;10.60;;;21.50;99.90;;;;;;4898809;29;20048;-63
2023/10/03 11:06:55;;;;;;;29.98;11.38;;;21.60;99.90;;;;;;4891767;29;20072;-63
2023/10/03 11:09:23;;;;;;;25.08;10.75;;;21.70;99.90;;;;;;4889609;29;20100;-64
2023/10/03 11:11:53;;;;;;;24.75;10.98;;;21.80;99.90;;;;;;4882803;29;20509;-62
2023/10/03 11:14:28;;;;;;;29.20;10.82;;;21.80;99.90;;;;;;4898619;29;20047;-64
2023/10/03 11:16:59;;;;;;;32.03;12.20;;;21.80;99.90;;;;;;4888031;29;20132;-63
2023/10/03 11:19:30;;;;;;;26.95;11.55;;;21.90;99.90;;;;;;4895928;29;20052;-64
2023/10/03 11:21:57;;;;;;;33.83;11.82;;;21.90;99.90;;;;;;4892359;29;20190;-63
2023/10/03 11:24:25;;;;;;;26.98;11.40;;;22.10;99.90;;;;;;4891088;29;20490;-63
2023/10/03 11:26:55;;;;;;;26.92;10.57;;;22.20;99.90;;;;;;4889371;29;20539;-64
2023/10/03 11:29:46;;;;;;;24.30;10.73;;;22.40;99.90;;;;;;4887695;29;20101;-63
2023/10/03 11:32:19;;;;;;;27.13;11.77;;;22.50;99.90;;;;;;4885360;29;20055;-63
2023/10/03 11:34:48;;;;;;;24.52;11.18;;;22.50;99.90;;;;;;4890897;29;20409;-63
2023/10/03 11:37:39;;;;;;;24.70;11.98;;;22.60;99.90;;;;;;4894768;29;20051;-64
2023/10/03 11:40:07;;;;;;;26.90;11.02;;;22.80;99.90;;;;;;4892348;29;20402;-64
2023/10/03 11:42:47;;;;;;;27.60;11.80;;;22.70;99.90;;;;;;4888875;29;20131;-64
2023/10/03 11:45:28;;;;;;;30.75;11.90;;;22.50;99.90;;;;;;4887460;29;20045;-64
2023/10/03 11:48:06;;;;;;;33.58;12.32;;;22.40;99.90;;;;;;4883415;29;20052;-63
2023/10/03 11:50:36;;;;;;;28.17;11.68;;;22.60;99.90;;;;;;4890304;29;20052;-62
2023/10/03 11:53:05;;;;;;;26.30;11.35;;;22.60;99.90;;;;;;4890805;29;20045;-64
2023/10/03 11:55:33;;;;;;;27.58;12.70;;;22.80;99.90;;;;;;4889961;29;20491;-63
2023/10/03 11:58:00;;;;;;;30.88;12.93;;;22.90;99.90;;;;;;4894153;29;20469;-62
2023/10/03 12:00:28;;;;;;;30.55;12.57;;;23.00;99.90;;;;;;4893463;29;20052;-64
2023/10/03 12:02:55;;;;;;;;;;;23.10;99.90;;;;;;4898717;29;20112;-64
2023/10/03 12:05:23;;;;;;;26.40;11.00;;;23.20;99.90;;;;;;4890002;29;19929;-63
2023/10/03 12:07:51;;;;;;;27.98;12.45;;;23.30;99.90;;;;;;4887662;29;20049;-64
2023/10/03 12:10:19;;;;;;;27.27;12.57;;;23.50;99.90;;;;;;4892626;29;20044;-64
2023/10/03 12:12:46;;;;;;;26.90;12.18;;;23.50;99.90;;;;;;4890081;29;20041;-63
2023/10/03 12:15:14;;;;;;;25.98;11.43;;;23.70;99.90;;;;;;4890261;29;20060;-64
2023/10/03 12:17:42;;;;;;;31.55;12.95;;;23.80;99.90;;;;;;4890090;29;20142;-63
2023/10/03 12:20:12;;;;;;;27.05;12.02;;;23.80;99.90;;;;;;4892038;29;20041;-64
2023/10/03 12:22:43;;;;;;;31.55;12.80;;;24.00;99.90;;;;;;4894671;29;20116;-64
2023/10/03 12:25:12;;;;;;;27.48;12.38;;;24.00;99.90;;;;;;4889617;29;20104;-64
2023/10/03 12:27:43;;;;;;;29.42;11.85;;;24.00;99.90;;;;;;4891609;29;20419;-64
2023/10/03 12:30:13;;;;;;;26.20;11.68;;;24.10;99.90;;;;;;4880193;29;20413;-64
2023/10/03 12:32:44;;;;;;;30.75;12.27;;;24.40;99.90;;;;;;4888023;29;20105;-63
2023/10/03 12:35:12;;;;;;;25.65;12.80;;;24.50;99.90;;;;;;4886296;29;20045;-64
2023/10/03 12:37:44;;;;;;;30.33;12.95;;;24.40;99.90;;;;;;4894197;29;20059;-64
2023/10/03 12:40:15;;;;;;;27.30;11.70;;;24.50;99.90;;;;;;4886444;29;20059;-64
2023/10/03 12:42:49;;;;;;;25.98;11.70;;;24.40;99.90;;;;;;4890461;29;20104;-64
2023/10/03 12:45:17;;;;;;;30.58;12.55;;;24.30;99.90;;;;;;4896196;29;20048;-63
2023/10/03 12:47:48;;;;;;;26.90;13.13;;;24.30;99.90;;;;;;4888431;29;20041;-64
2023/10/03 12:50:19;;;;;;;31.92;12.27;;;24.30;99.90;;;;;;4889246;29;20520;-63
2023/10/03 12:52:47;;;;;;;26.90;12.10;;;24.40;99.90;;;;;;4869313;29;20049;-63
2023/10/03 12:55:16;;;;;;;24.90;11.90;;;24.50;99.90;;;;;;4886365;29;20411;-63
2023/10/03 12:57:46;;;;;;;26.80;12.18;;;24.50;99.90;;;;;;4893081;29;20417;-64